Time;durP1;ratioP1;P1;durP2;ratioP2;P2;SDS_P1;SDS_P2;PMS_P1;PMS_P2;Temp;Humidity;BMP_temperature;BMP_pressure;BME280_temperature;BME280_humidity;BME280_pressure;Samples;Min_cycle;Max_cycle;Signal;HPM_P1;HPM_P2
2023/04/04 00:01:32;;;;;;;6.30;3.25;;;;;;;0.98;100.00;103112.91;10342136;28;20034;-76
2023/04/04 00:06:33;;;;;;;10.00;4.13;;;;;;;0.93;100.00;103117.91;10374455;28;20041;-75
2023/04/04 00:11:33;;;;;;;7.90;3.83;;;;;;;0.79;100.00;103099.28;10384280;28;20061;-75
2023/04/04 00:16:34;;;;;;;7.75;3.92;;;;;;;0.72;100.00;103100.78;10382978;28;20044;-75
2023/04/04 00:21:34;;;;;;;7.78;4.47;;;;;;;0.67;100.00;103103.06;10374710;28;20100;-75
2023/04/04 00:26:35;;;;;;;7.43;4.78;;;;;;;0.57;100.00;103101.13;10357756;28;20041;-76
2023/04/04 00:31:35;;;;;;;8.10;3.70;;;;;;;0.47;100.00;103099.38;10321265;28;20378;-76
2023/04/04 00:36:36;;;;;;;8.95;3.90;;;;;;;0.42;100.00;103105.19;10335392;28;20045;-75
2023/04/04 00:41:36;;;;;;;11.07;5.05;;;;;;;0.29;100.00;103082.81;10335837;28;20038;-75
2023/04/04 00:46:37;;;;;;;7.78;4.70;;;;;;;0.25;100.00;103086.78;10340738;28;20456;-75
2023/04/04 00:51:37;;;;;;;8.45;3.80;;;;;;;0.19;100.00;103088.19;10341101;28;20042;-75
2023/04/04 00:56:38;;;;;;;8.50;3.85;;;;;;;0.13;100.00;103078.75;10363025;28;20038;-75
2023/04/04 01:01:39;;;;;;;7.90;4.07;;;;;;;0.05;100.00;103086.66;10338051;28;20121;-76
2023/04/04 01:06:40;;;;;;;5.95;4.07;;;;;;;-0.07;100.00;103082.28;10350959;28;20046;-75
2023/04/04 01:11:41;;;;;;;7.28;4.00;;;;;;;-0.23;100.00;103061.06;10365329;28;20026;-76
2023/04/04 01:16:41;;;;;;;7.93;3.60;;;;;;;-0.28;100.00;103080.41;10363837;28;20167;-74
2023/04/04 01:21:42;;;;;;;8.15;3.80;;;;;;;-0.34;100.00;103086.31;10343512;28;20047;-75
2023/04/04 01:26:42;;;;;;;6.45;2.70;;;;;;;-0.42;100.00;103076.13;10395302;28;20501;-75
2023/04/04 01:31:51;;;;;;;5.90;3.03;;;;;;;-0.45;100.00;103094.50;10375662;28;20046;-76
2023/04/04 01:37:03;;;;;;;4.35;2.47;;;;;;;-0.64;100.00;103085.19;10353098;28;20096;-75
2023/04/04 01:42:03;;;;;;;9.30;2.97;;;;;;;-0.64;100.00;103090.59;10354322;28;20038;-74
2023/04/04 01:47:09;;;;;;;9.48;3.17;;;;;;;-0.79;100.00;103064.78;10369390;28;20040;-74
2023/04/04 01:52:11;;;;;;;8.85;2.50;;;;;;;-0.80;100.00;103079.31;10339060;28;20444;-75
2023/04/04 01:57:11;;;;;;;6.90;3.00;;;;;;;-0.88;100.00;103065.56;10354607;28;20045;-74
2023/04/04 02:02:12;;;;;;;4.93;3.00;;;;;;;-0.95;100.00;103058.91;10337805;28;20041;-75
2023/04/04 02:07:13;;;;;;;5.32;3.05;;;;;;;-0.95;100.00;103078.72;10321057;28;20041;-75
2023/04/04 02:12:13;;;;;;;7.50;3.60;;;;;;;-1.10;100.00;103048.34;10338540;28;20054;-73
2023/04/04 02:17:15;;;;;;;13.75;4.57;;;;;;;-1.05;100.00;103059.66;10368880;28;20046;-75
2023/04/04 02:22:15;;;;;;;8.38;3.60;;;;;;;-1.05;100.00;103069.63;10351339;28;20540;-75
2023/04/04 02:27:16;;;;;;;9.07;3.67;;;;;;;-1.15;100.00;103055.97;10351255;28;20038;-74
2023/04/04 02:32:17;;;;;;;7.07;3.45;;;;;;;-1.19;100.00;103050.94;10351374;28;20497;-75
2023/04/04 02:37:17;;;;;;;6.03;3.40;;;;;;;-1.27;100.00;103065.06;10334362;28;20033;-74
2023/04/04 02:42:18;;;;;;;6.47;3.67;;;;;;;-1.45;100.00;103045.78;10351020;28;20034;-74
2023/04/04 02:47:19;;;;;;;5.72;3.40;;;;;;;-1.46;100.00;103060.28;10353656;28;20042;-75
2023/04/04 02:52:21;;;;;;;9.02;3.53;;;;;;;-1.63;100.00;103048.97;10334086;28;20033;-72
2023/04/04 02:57:21;;;;;;;8.73;2.80;;;;;;;-1.70;100.00;103036.03;10337321;28;20112;-73
2023/04/04 03:02:23;;;;;;;4.50;3.28;;;;;;;-1.78;100.00;103044.75;10337111;28;20309;-74
2023/04/04 03:07:23;;;;;;;5.00;2.80;;;;;;;-1.75;100.00;103059.88;10352056;28;20052;-73
2023/04/04 03:12:24;;;;;;;6.43;3.90;;;;;;;-1.83;100.00;103047.81;10336768;28;20113;-74
2023/04/04 03:17:24;;;;;;;8.00;3.17;;;;;;;-1.92;100.00;103037.72;10366473;28;20053;-74
2023/04/04 03:22:25;;;;;;;8.77;3.57;;;;;;;-1.89;100.00;103034.78;10319379;28;20046;-74
2023/04/04 03:27:26;;;;;;;5.22;3.03;;;;;;;-1.97;100.00;103023.72;10333561;28;20057;-74
2023/04/04 03:32:27;;;;;;;12.95;4.20;;;;;;;-1.90;100.00;103040.28;10340304;28;20026;-74
2023/04/04 03:37:30;;;;;;;9.07;3.60;;;;;;;-1.98;100.00;103031.97;10344133;28;20172;-73
2023/04/04 03:42:34;;;;;;;7.83;3.23;;;;;;;-2.36;100.00;102958.34;10387716;28;20034;-73
2023/04/04 03:47:34;;;;;;;6.38;3.00;;;;;;;-1.98;100.00;103022.00;10372767;28;20037;-73
2023/04/04 03:52:41;;;;;;;5.55;3.45;;;;;;;-2.00;100.00;103023.97;10330841;28;20030;-73
2023/04/04 03:57:41;;;;;;;;;;;;;;;-1.97;100.00;103022.88;10344173;28;20064;-73
2023/04/04 04:02:42;;;;;;;6.53;3.22;;;;;;;-2.17;100.00;103001.00;10342724;28;19928;-73
2023/04/04 04:07:44;;;;;;;9.52;4.18;;;;;;;-2.12;100.00;103020.38;10342555;28;20069;-74
2023/04/04 04:12:44;;;;;;;4.97;3.03;;;;;;;-2.12;100.00;103024.91;10343155;28;20049;-73
2023/04/04 04:17:45;;;;;;;5.88;3.88;;;;;;;-2.13;100.00;103002.47;10339506;28;20030;-73
2023/04/04 04:22:48;;;;;;;12.70;4.57;;;;;;;-2.14;100.00;103024.16;10340710;28;20053;-73
2023/04/04 04:27:49;;;;;;;8.40;4.75;;;;;;;-2.22;100.00;103037.38;10347581;28;20099;-74
2023/04/04 04:32:49;;;;;;;10.60;3.90;;;;;;;-2.27;100.00;103030.50;10333028;28;20041;-74
2023/04/04 04:37:51;;;;;;;6.88;3.75;;;;;;;-2.33;100.00;103020.19;10341533;28;20040;-73
2023/04/04 04:42:51;;;;;;;8.38;3.63;;;;;;;-2.28;100.00;103025.22;10358551;28;20045;-74
2023/04/04 04:47:52;;;;;;;8.55;3.70;;;;;;;-2.28;100.00;103031.47;10361905;28;20049;-74
2023/04/04 04:52:52;;;;;;;7.53;4.03;;;;;;;-2.32;100.00;103016.50;10370000;28;20038;-74
2023/04/04 04:57:53;;;;;;;9.07;3.97;;;;;;;-2.33;100.00;103028.28;10356213;28;20076;-72
2023/04/04 05:02:55;;;;;;;9.43;4.38;;;;;;;-2.24;100.00;103038.34;10356105;28;20037;-73
2023/04/04 05:07:55;;;;;;;7.65;3.50;;;;;;;-2.21;100.00;103041.78;10340895;28;20034;-74
2023/04/04 05:12:56;;;;;;;7.47;4.20;;;;;;;-2.26;100.00;103040.31;10340960;28;20038;-74
2023/04/04 05:17:57;;;;;;;9.30;4.37;;;;;;;-2.16;100.00;103045.88;10351262;28;20042;-73
2023/04/04 05:22:59;;;;;;;8.80;4.37;;;;;;;-2.10;100.00;103047.25;10409168;28;20038;-73
2023/04/04 05:27:59;;;;;;;9.43;5.50;;;;;;;-2.06;100.00;103052.28;10360272;28;20069;-73
2023/04/04 05:33:00;;;;;;;9.80;5.38;;;;;;;-2.01;100.00;103065.41;10378699;28;20069;-74
2023/04/04 05:38:00;;;;;;;8.05;4.63;;;;;;;-1.86;100.00;103058.84;10363392;28;20591;-74
2023/04/04 05:43:03;;;;;;;11.27;4.45;;;;;;;-1.77;100.00;103059.13;10365237;28;20350;-74
2023/04/04 05:48:03;;;;;;;13.25;5.65;;;;;;;-1.65;100.00;103055.47;10353961;28;20076;-74
2023/04/04 05:53:04;;;;;;;8.82;3.80;;;;;;;-1.55;100.00;103051.06;10337386;28;20129;-74
2023/04/04 05:58:04;;;;;;;9.82;3.72;;;;;;;-1.39;100.00;103063.34;10331934;28;20081;-75
2023/04/04 06:03:05;;;;;;;6.50;3.50;;;;;;;-1.29;100.00;103061.63;10353297;28;20038;-75
2023/04/04 06:08:06;;;;;;;10.10;4.18;;;;;;;-1.26;100.00;103050.56;10354284;28;20041;-74
2023/04/04 06:13:06;;;;;;;6.25;3.20;;;;;;;-1.09;100.00;103057.34;10382295;28;20099;-74
2023/04/04 06:18:07;;;;;;;7.18;3.50;;;;;;;-1.29;100.00;103010.28;10346705;28;20042;-74
2023/04/04 06:23:08;;;;;;;7.90;4.20;;;;;;;-0.84;100.00;103067.88;10353075;28;20038;-75
2023/04/04 06:28:10;;;;;;;9.23;3.95;;;;;;;-0.72;100.00;103038.13;10353565;28;20121;-75
2023/04/04 06:33:10;;;;;;;14.27;4.85;;;;;;;-0.52;100.00;103018.34;10351854;28;20050;-76
2023/04/04 06:38:11;;;;;;;12.93;4.35;;;;;;;0.02;100.00;103049.00;10353682;28;20038;-76
2023/04/04 06:43:12;;;;;;;7.55;2.67;;;;;;;0.44;100.00;103043.59;10336904;28;20048;-76
2023/04/04 06:48:13;;;;;;;7.40;2.45;;;;;;;0.67;100.00;103011.72;10319996;28;20033;-77
2023/04/04 06:53:13;;;;;;;8.98;2.25;;;;;;;1.20;100.00;103024.19;10353024;28;20054;-77
2023/04/04 06:58:14;;;;;;;10.43;2.30;;;;;;;1.54;100.00;103019.22;10366171;28;20041;-77
2023/04/04 07:03:14;;;;;;;9.20;2.88;;;;;;;1.90;100.00;103022.25;10338707;28;20030;-76
2023/04/04 07:08:15;;;;;;;5.18;2.05;;;;;;;2.17;100.00;103013.31;10372390;28;20064;-77
2023/04/04 07:13:15;;;;;;;6.75;2.45;;;;;;;2.29;100.00;103024.00;10388741;28;20061;-77
2023/04/04 07:18:16;;;;;;;8.80;3.25;;;;;;;2.40;100.00;103024.72;10347953;28;20042;-76
2023/04/04 07:23:16;;;;;;;6.78;2.67;;;;;;;2.50;100.00;103021.97;10371136;28;20033;-77
2023/04/04 07:28:17;;;;;;;7.22;2.58;;;;;;;2.60;100.00;102990.16;10338385;28;20034;-77
2023/04/04 07:33:17;;;;;;;6.10;3.00;;;;;;;2.85;100.00;103011.34;10379681;28;20044;-75
2023/04/04 07:38:17;;;;;;;7.45;2.40;;;;;;;2.94;100.00;102995.00;10368766;28;20280;-76
2023/04/04 07:43:18;;;;;;;5.78;2.40;;;;;;;3.08;100.00;102996.34;10322203;28;20042;-76
2023/04/04 07:48:18;;;;;;;10.65;2.00;;;;;;;3.17;100.00;102973.66;10384403;28;20049;-76
2023/04/04 07:53:19;;;;;;;8.07;2.60;;;;;;;3.29;100.00;102987.91;10355904;28;20041;-76
2023/04/04 07:58:21;;;;;;;3.10;1.80;;;;;;;3.40;100.00;102984.94;10355531;28;20030;-75
2023/04/04 08:03:22;;;;;;;9.38;2.33;;;;;;;3.09;100.00;102919.13;10421337;28;20060;-76
2023/04/04 08:08:23;;;;;;;7.03;1.80;;;;;;;3.43;100.00;102979.19;10393161;28;20038;-76
2023/04/04 08:13:23;;;;;;;8.43;1.55;;;;;;;3.35;100.00;102949.16;10392065;28;20064;-76
2023/04/04 08:18:24;;;;;;;5.13;1.88;;;;;;;3.65;100.00;102979.72;10365387;28;20093;-77
2023/04/04 08:23:25;;;;;;;7.65;2.17;;;;;;;3.80;100.00;102958.22;10376702;28;20464;-76
2023/04/04 08:28:28;;;;;;;6.82;2.63;;;;;;;4.13;100.00;102961.19;10358137;28;20089;-76
2023/04/04 08:33:29;;;;;;;4.35;2.20;;;;;;;4.33;100.00;102949.03;10345010;28;20060;-76
2023/04/04 08:38:30;;;;;;;4.88;2.10;;;;;;;4.55;100.00;102969.47;10344144;28;20041;-77
2023/04/04 08:43:31;;;;;;;5.97;1.50;;;;;;;4.54;100.00;102896.81;10354544;28;20060;-77
2023/04/04 08:48:31;;;;;;;5.85;2.30;;;;;;;5.18;100.00;102939.97;10347760;28;20034;-76
2023/04/04 08:53:33;;;;;;;4.72;1.88;;;;;;;5.47;100.00;102955.88;10376298;28;20048;-76
2023/04/04 08:58:33;;;;;;;6.78;1.67;;;;;;;5.69;100.00;102935.25;10369457;28;20045;-76
2023/04/04 09:03:34;;;;;;;7.38;1.65;;;;;;;5.82;96.26;102935.56;10349805;28;20452;-79
2023/04/04 09:08:35;;;;;;;4.40;1.88;;;;;;;5.78;93.52;102912.34;10325610;28;20038;-77
2023/04/04 09:13:35;;;;;;;4.13;1.50;;;;;;;6.03;91.04;102920.53;10356988;28;20065;-75
2023/04/04 09:18:36;;;;;;;6.53;1.65;;;;;;;6.32;88.38;102905.41;10356115;28;20526;-75
2023/04/04 09:23:37;;;;;;;6.95;1.25;;;;;;;6.60;82.25;102894.88;10340095;28;20042;-78
2023/04/04 09:28:37;;;;;;;4.90;1.55;;;;;;;6.77;79.81;102892.91;10312424;28;20053;-86
2023/04/04 09:33:38;;;;;;;3.38;1.20;;;;;;;7.00;80.04;102885.56;10338970;28;20065;-82
2023/04/04 09:38:42;;;;;;;6.63;2.03;;;;;;;7.42;80.05;102914.41;10367991;28;20045;-78
2023/04/04 09:43:43;;;;;;;3.55;1.70;;;;;;;7.40;76.99;102888.19;10377804;28;20042;-72
2023/04/04 09:48:47;;;;;;;3.30;1.52;;;;;;;7.54;77.24;102892.03;10354348;28;20046;-74
2023/04/04 09:53:49;;;;;;;2.70;1.30;;;;;;;7.65;75.73;102886.09;10353965;28;20030;-75
2023/04/04 09:58:49;;;;;;;3.72;1.75;;;;;;;7.52;74.03;102894.94;10354967;28;20041;-76
2023/04/04 10:03:52;;;;;;;3.03;1.27;;;;;;;7.57;71.86;102875.22;10373818;28;20064;-77
2023/04/04 10:08:52;;;;;;;5.72;1.60;;;;;;;7.55;74.19;102889.09;10370841;28;20038;-80
2023/04/04 10:13:53;;;;;;;4.22;1.40;;;;;;;7.58;74.86;102883.22;10354047;28;20053;-82
2023/04/04 10:18:54;;;;;;;4.95;1.98;;;;;;;7.86;74.19;102890.88;10363786;28;20049;-79
2023/04/04 10:23:54;;;;;;;2.60;1.38;;;;;;;8.30;74.26;102892.78;10352803;28;20050;-74
2023/04/04 10:28:55;;;;;;;3.63;1.48;;;;;;;8.52;74.94;102891.00;10336720;28;20102;-74
2023/04/04 10:34:06;;;;;;;4.43;1.63;;;;;;;8.86;68.10;102859.28;10337926;28;20041;-73
2023/04/04 10:39:13;;;;;;;3.67;1.77;;;;;;;8.80;66.29;102863.66;10386237;28;20351;-73
2023/04/04 10:44:28;;;;;;;3.90;1.58;;;;;;;9.09;66.69;102854.50;10346269;28;20079;-76
2023/04/04 10:49:29;;;;;;;4.25;1.90;;;;;;;9.49;66.60;102852.09;10392212;28;20104;-76
2023/04/04 10:54:30;;;;;;;8.27;1.88;;;;;;;9.90;62.76;102834.84;10360406;28;20038;-76
2023/04/04 10:59:30;;;;;;;4.22;1.67;;;;;;;10.13;61.05;102817.19;10342366;28;20053;-80
2023/04/04 11:04:32;;;;;;;4.03;2.58;;;;;;;10.32;66.89;102848.66;10369545;28;20052;-79
2023/04/04 11:09:53;;;;;;;3.75;2.28;;;;;;;10.59;61.63;102822.06;10351150;28;20104;-80
2023/04/04 11:15:10;;;;;;;4.45;2.00;;;;;;;10.47;60.79;102812.72;10334492;28;20266;-77
2023/04/04 11:20:15;;;;;;;5.03;1.90;;;;;;;10.56;62.42;102816.13;10347864;28;20045;-77
2023/04/04 11:25:26;;;;;;;4.38;1.88;;;;;;;10.48;61.65;102784.13;10372382;28;20042;-80
2023/04/04 11:30:29;;;;;;;5.45;2.13;;;;;;;10.59;61.09;102786.28;10387866;28;20034;-80
2023/04/04 11:35:30;;;;;;;4.55;1.77;;;;;;;11.20;59.94;102796.31;10362128;28;20044;-79
2023/04/04 11:40:35;;;;;;;5.13;1.73;;;;;;;10.92;61.19;102793.75;10353667;28;20045;-78
2023/04/04 11:45:36;;;;;;;3.67;1.88;;;;;;;11.45;59.88;102807.56;10340686;28;20580;-78
2023/04/04 11:50:40;;;;;;;5.03;2.05;;;;;;;11.78;58.81;102797.53;10361680;28;20103;-78
2023/04/04 11:55:41;;;;;;;6.80;2.10;;;;;;;11.61;56.29;102791.63;10383418;28;20042;-78
2023/04/04 12:00:42;;;;;;;3.25;1.70;;;;;;;10.94;58.45;102780.63;10380757;28;20052;-77
2023/04/04 12:05:43;;;;;;;5.57;2.08;;;;;;;11.22;58.46;102787.84;10357055;28;20038;-79
2023/04/04 12:10:44;;;;;;;4.35;1.85;;;;;;;12.24;55.53;102727.56;10346868;28;20033;-81
2023/04/04 12:15:44;;;;;;;4.40;2.63;;;;;;;13.32;53.88;102765.31;10399325;28;20034;-84
2023/04/04 12:20:50;;;;;;;5.00;1.58;;;;;;;13.81;53.89;102746.94;10384913;28;20033;-81
2023/04/04 12:25:53;;;;;;;8.32;2.20;;;;;;;14.09;53.35;102737.22;10368835;28;20101;-84
2023/04/04 12:30:54;;;;;;;5.30;2.10;;;;;;;14.43;51.71;102746.78;10366426;28;20446;-83
2023/04/04 12:35:55;;;;;;;10.80;2.42;;;;;;;13.66;50.50;102713.25;10382325;28;20033;-83
2023/04/04 12:40:55;;;;;;;5.70;2.00;;;;;;;13.92;52.99;102726.78;10357666;28;20511;-75
2023/04/04 12:45:56;;;;;;;9.35;2.05;;;;;;;13.97;49.49;102706.69;10375144;28;20045;-78
2023/04/04 12:50:58;;;;;;;5.43;2.60;;;;;;;14.16;52.25;102726.91;10325918;28;20100;-78
2023/04/04 12:56:01;;;;;;;4.18;2.22;;;;;;;14.31;51.98;102718.19;10342265;28;20088;-75
2023/04/04 13:01:01;;;;;;;4.60;2.10;;;;;;;13.73;49.07;102695.50;10357202;28;20133;-75
2023/04/04 13:06:02;;;;;;;6.55;2.58;;;;;;;14.29;53.31;102710.09;10357095;28;20544;-75
2023/04/04 13:11:04;;;;;;;4.82;2.72;;;;;;;14.61;50.80;102684.94;10374645;28;20057;-75
2023/04/04 13:16:06;;;;;;;5.60;2.30;;;;;;;14.48;50.28;102680.41;10340334;28;20433;-72
2023/04/04 13:21:07;;;;;;;9.05;3.38;;;;;;;14.41;52.22;102696.31;10360156;28;20045;-72
2023/04/04 13:26:08;;;;;;;4.10;2.20;;;;;;;14.68;53.94;102691.22;10358674;28;20044;-72
2023/04/04 13:31:10;;;;;;;5.38;2.28;;;;;;;15.14;52.34;102672.94;10374590;28;20049;-72
2023/04/04 13:36:12;;;;;;;5.00;2.55;;;;;;;15.11;50.98;102654.00;10355027;28;20040;-73
2023/04/04 13:41:13;;;;;;;9.13;3.10;;;;;;;15.17;52.71;102670.75;10388560;28;20037;-73
2023/04/04 13:46:14;;;;;;;7.22;2.63;;;;;;;15.00;52.16;102609.63;10351915;28;20489;-73
2023/04/04 13:51:14;;;;;;;4.47;2.25;;;;;;;15.54;49.77;102643.56;10395361;28;20045;-72
2023/04/04 13:56:15;;;;;;;4.70;2.38;;;;;;;15.01;49.26;102634.34;10378227;28;20041;-70
2023/04/04 14:01:16;;;;;;;4.28;2.33;;;;;;;14.89;52.03;102634.34;10411432;28;20044;-72
2023/04/04 14:06:16;;;;;;;5.72;2.78;;;;;;;15.11;50.96;102609.63;10345205;28;20041;-72
2023/04/04 14:11:17;;;;;;;6.45;2.20;;;;;;;15.60;46.40;102591.78;10345265;28;20101;-72
2023/04/04 14:16:18;;;;;;;4.43;1.90;;;;;;;15.53;45.42;102609.44;10320420;28;20117;-72
2023/04/04 14:21:18;;;;;;;5.85;2.45;;;;;;;15.26;46.20;102588.88;10338303;28;20026;-72
2023/04/04 14:26:19;;;;;;;4.70;1.98;;;;;;;16.14;44.82;102587.59;10337084;28;20042;-72
2023/04/04 14:31:20;;;;;;;5.97;1.70;;;;;;;16.77;44.71;102595.88;10353218;28;20030;-75
2023/04/04 14:36:20;;;;;;;3.25;1.60;;;;;;;16.80;43.83;102580.59;10353543;28;20038;-71
2023/04/04 14:41:21;;;;;;;3.40;1.83;;;;;;;16.10;44.63;102591.13;10337180;28;20177;-70
2023/04/04 14:46:22;;;;;;;4.15;1.92;;;;;;;15.20;44.54;102590.69;10337630;28;20049;-71
2023/04/04 14:51:22;;;;;;;4.72;2.17;;;;;;;14.87;45.83;102588.53;10382178;28;20038;-73
2023/04/04 14:56:23;;;;;;;4.97;1.95;;;;;;;14.78;43.34;102573.34;10338114;28;20042;-71
2023/04/04 15:01:23;;;;;;;5.70;2.63;;;;;;;14.53;45.95;102571.59;10320008;28;20042;-71
2023/04/04 15:06:25;;;;;;;6.43;2.25;;;;;;;13.87;46.76;102563.28;10311943;28;20111;-72
2023/04/04 15:11:27;;;;;;;4.28;1.80;;;;;;;13.62;48.74;102565.31;10308923;28;20042;-72
2023/04/04 15:16:31;;;;;;;5.65;2.20;;;;;;;13.73;48.24;102584.75;10345161;28;20042;-71
2023/04/04 15:21:32;;;;;;;8.27;3.30;;;;;;;13.80;50.61;102589.38;10337319;28;20038;-72
2023/04/04 15:26:32;;;;;;;5.55;2.53;;;;;;;14.05;51.59;102587.28;10319612;28;20419;-71
2023/04/04 15:31:33;;;;;;;8.00;2.40;;;;;;;12.89;50.30;102570.63;10345216;28;20053;-72
2023/04/04 15:36:35;;;;;;;6.22;2.38;;;;;;;12.59;51.87;102573.28;10360165;28;20033;-72
2023/04/04 15:41:36;;;;;;;4.28;2.40;;;;;;;12.21;53.25;102599.06;10343371;28;20029;-72
2023/04/04 15:46:37;;;;;;;6.22;2.00;;;;;;;11.77;52.83;102592.50;10343478;28;20142;-71
2023/04/04 15:51:38;;;;;;;6.47;2.58;;;;;;;11.18;55.01;102588.06;10287188;28;20077;-72
2023/04/04 15:56:39;;;;;;;3.88;2.17;;;;;;;10.93;57.28;102598.94;10302807;28;20498;-71
2023/04/04 16:01:39;;;;;;;7.60;2.80;;;;;;;10.50;58.73;102597.50;10335023;28;20041;-70
2023/04/04 16:06:40;;;;;;;7.28;2.90;;;;;;;10.26;59.25;102604.44;10355975;28;20495;-70
2023/04/04 16:11:40;;;;;;;11.75;2.80;;;;;;;10.11;60.47;102612.91;10381687;28;20042;-70
2023/04/04 16:16:41;;;;;;;9.07;2.85;;;;;;;9.72;61.79;102611.72;10375536;28;20034;-71
2023/04/04 16:21:45;;;;;;;6.25;2.70;;;;;;;9.16;63.79;102601.72;10398406;28;20078;-71
2023/04/04 16:26:47;;;;;;;6.60;2.90;;;;;;;8.81;66.39;102603.63;10365939;28;20044;-70
2023/04/04 16:31:48;;;;;;;7.95;3.33;;;;;;;8.50;68.16;102609.50;10398254;28;20034;-70
2023/04/04 16:36:48;;;;;;;10.57;3.50;;;;;;;8.25;72.92;102618.13;10358746;28;20037;-70
2023/04/04 16:41:49;;;;;;;6.00;2.70;;;;;;;8.16;73.93;102633.81;10399011;28;20029;-71
2023/04/04 16:46:49;;;;;;;6.68;3.05;;;;;;;7.59;75.82;102566.97;10381519;28;20050;-70
2023/04/04 16:51:50;;;;;;;6.55;3.03;;;;;;;7.71;77.20;102613.94;10412951;28;20065;-70
2023/04/04 16:56:50;;;;;;;6.18;2.65;;;;;;;7.67;79.63;102629.09;10397130;28;20053;-71
2023/04/04 17:01:51;;;;;;;7.15;3.42;;;;;;;7.57;80.85;102620.31;10357540;28;20398;-69
2023/04/04 17:06:51;;;;;;;7.03;2.65;;;;;;;7.31;83.13;102607.09;10379817;28;22360;-70
2023/04/04 17:11:52;;;;;;;6.40;2.70;;;;;;;7.18;86.67;102616.81;10380601;28;20044;-70
2023/04/04 17:16:53;;;;;;;6.93;2.90;;;;;;;7.12;91.31;102619.47;10360753;28;20041;-70
2023/04/04 17:21:53;;;;;;;5.72;3.28;;;;;;;7.03;92.82;102619.56;10401512;28;20033;-70
2023/04/04 17:26:55;;;;;;;8.65;3.67;;;;;;;6.89;95.60;102598.50;10377918;28;20045;-71
2023/04/04 17:31:56;;;;;;;11.40;4.15;;;;;;;6.84;97.43;102593.59;10395378;28;20404;-71
2023/04/04 17:36:56;;;;;;;8.60;3.63;;;;;;;6.79;100.00;102587.81;10349945;28;20068;-70
2023/04/04 17:41:57;;;;;;;6.57;3.15;;;;;;;6.73;100.00;102590.47;10353037;28;20030;-71
2023/04/04 17:46:58;;;;;;;8.15;3.67;;;;;;;6.60;98.90;102594.69;10368856;28;20071;-69
2023/04/04 17:51:59;;;;;;;9.25;3.40;;;;;;;6.42;100.00;102597.75;10369969;28;20049;-71
2023/04/04 17:56:59;;;;;;;10.50;3.67;;;;;;;6.26;98.99;102604.22;10355338;28;20037;-70
2023/04/04 18:02:00;;;;;;;6.60;3.35;;;;;;;5.99;98.57;102591.94;10372582;28;20036;-71
2023/04/04 18:07:00;;;;;;;6.88;3.40;;;;;;;5.71;97.47;102582.53;10376882;28;20037;-71
2023/04/04 18:12:01;;;;;;;10.57;2.90;;;;;;;5.67;98.63;102609.38;10395251;28;20037;-71
2023/04/04 18:17:02;;;;;;;10.85;3.28;;;;;;;5.61;98.45;102610.09;10377818;28;20048;-71
2023/04/04 18:22:03;;;;;;;6.10;2.42;;;;;;;5.49;100.00;102606.03;10409586;28;20037;-71
2023/04/04 18:27:03;;;;;;;6.70;2.83;;;;;;;5.37;98.52;102603.69;10348278;28;20037;-71
2023/04/04 18:32:04;;;;;;;5.57;2.80;;;;;;;5.35;99.83;102611.22;10377288;28;20045;-71
2023/04/04 18:37:05;;;;;;;7.82;2.78;;;;;;;5.26;100.00;102625.94;10392226;28;20037;-71
2023/04/04 18:42:05;;;;;;;8.68;2.92;;;;;;;5.12;100.00;102632.97;10352231;28;20059;-70
2023/04/04 18:47:07;;;;;;;7.32;3.08;;;;;;;4.86;100.00;102633.22;10384572;28;20095;-70
2023/04/04 18:52:07;;;;;;;6.32;2.67;;;;;;;4.53;100.00;102608.69;10410500;28;20044;-70
2023/04/04 18:57:08;;;;;;;5.50;2.97;;;;;;;4.49;100.00;102642.78;10371931;28;20034;-70
2023/04/04 19:02:08;;;;;;;6.10;3.00;;;;;;;4.36;100.00;102648.75;10371967;28;20026;-70
2023/04/04 19:07:09;;;;;;;11.80;3.75;;;;;;;4.26;100.00;102653.53;10374965;28;20382;-71
2023/04/04 19:12:10;;;;;;;6.57;3.05;;;;;;;4.17;100.00;102654.53;10393600;28;20072;-69
2023/04/04 19:17:14;;;;;;;5.88;2.90;;;;;;;4.07;100.00;102643.75;10374293;28;20041;-70
2023/04/04 19:22:14;;;;;;;5.50;2.55;;;;;;;3.97;100.00;102637.63;10375389;28;20082;-70
2023/04/04 19:27:15;;;;;;;8.40;3.15;;;;;;;3.93;100.00;102645.28;10358068;28;20135;-70
2023/04/04 19:32:18;;;;;;;9.90;3.67;;;;;;;3.96;100.00;102641.38;10358982;28;20041;-70
2023/04/04 19:37:19;;;;;;;7.43;3.10;;;;;;;3.88;100.00;102633.19;10366964;28;20097;-69
2023/04/04 19:42:25;;;;;;;8.70;3.35;;;;;;;3.90;100.00;102645.59;10375948;28;20161;-69
2023/04/04 19:47:25;;;;;;;6.30;2.97;;;;;;;3.49;100.00;102588.28;10363086;28;20033;-71
2023/04/04 19:52:26;;;;;;;9.02;3.88;;;;;;;3.72;100.00;102633.97;10365957;28;20060;-69
2023/04/04 19:57:27;;;;;;;10.35;3.90;;;;;;;3.19;100.00;102557.06;10367755;28;20159;-70
2023/04/04 20:02:33;;;;;;;7.60;3.75;;;;;;;3.63;100.00;102646.72;10369484;28;20140;-69
2023/04/04 20:07:34;;;;;;;6.00;2.78;;;;;;;3.47;100.00;102635.78;10391652;28;20041;-69
2023/04/04 20:12:34;;;;;;;7.05;3.17;;;;;;;3.37;100.00;102625.88;10362574;28;20075;-69
2023/04/04 20:17:35;;;;;;;6.82;3.40;;;;;;;3.39;100.00;102645.63;10382409;28;20042;-69
2023/04/04 20:22:35;;;;;;;4.88;3.28;;;;;;;3.25;100.00;102629.06;10397891;28;20440;-69
2023/04/04 20:27:36;;;;;;;5.00;2.55;;;;;;;3.24;100.00;102636.34;10380234;28;20045;-69
2023/04/04 20:32:36;;;;;;;8.63;3.28;;;;;;;3.10;100.00;102632.38;10397318;28;20045;-70
2023/04/04 20:37:37;;;;;;;7.57;3.15;;;;;;;2.86;100.00;102611.31;10361681;28;20064;-68
2023/04/04 20:42:40;;;;;;;6.45;3.10;;;;;;;2.86;100.00;102633.06;10381900;28;20987;-70
2023/04/04 20:47:50;;;;;;;8.82;3.30;;;;;;;2.71;100.00;102635.53;10380943;28;20134;-69
2023/04/04 20:52:51;;;;;;;7.63;3.40;;;;;;;2.55;100.00;102636.25;10390859;28;20041;-70
2023/04/04 20:58:06;;;;;;;8.52;3.72;;;;;;;2.39;100.00;102641.56;10356685;28;20037;-70
2023/04/04 21:03:24;;;;;;;7.45;3.45;;;;;;;2.30;100.00;102631.63;10349270;28;20042;-69
2023/04/04 21:08:28;;;;;;;6.20;3.25;;;;;;;2.24;100.00;102627.69;10383308;28;20057;-70
2023/04/04 21:13:36;;;;;;;11.95;4.05;;;;;;;2.04;100.00;102597.09;10378731;28;20069;-70
2023/04/04 21:18:37;;;;;;;6.65;3.85;;;;;;;2.04;100.00;102621.53;10396186;28;20034;-69
2023/04/04 21:23:54;;;;;;;7.30;3.80;;;;;;;1.97;100.00;102617.75;10362083;28;20146;-70
2023/04/04 21:28:55;;;;;;;7.60;3.92;;;;;;;1.82;100.00;102612.00;10345445;28;20037;-69
2023/04/04 21:34:05;;;;;;;8.85;3.80;;;;;;;1.69;100.00;102617.78;10378938;28;20046;-70
2023/04/04 21:39:07;;;;;;;7.43;3.40;;;;;;;1.47;100.00;102613.63;10373877;28;20044;-69
2023/04/04 21:44:08;;;;;;;10.85;4.22;;;;;;;1.42;100.00;102616.78;10378045;28;20179;-68
2023/04/04 21:49:08;;;;;;;15.57;3.97;;;;;;;1.33;100.00;102623.13;10355360;28;20479;-69
2023/04/04 21:54:09;;;;;;;11.27;4.03;;;;;;;1.22;100.00;102615.19;10386054;28;20105;-71
2023/04/04 21:59:10;;;;;;;8.30;3.80;;;;;;;0.98;100.00;102597.56;10372353;28;20037;-69
2023/04/04 22:04:10;;;;;;;9.18;4.82;;;;;;;0.94;100.00;102612.44;10377435;28;20037;-69
2023/04/04 22:09:14;;;;;;;9.90;3.90;;;;;;;0.80;100.00;102607.50;10365620;28;20057;-69
2023/04/04 22:14:16;;;;;;;8.27;4.22;;;;;;;0.70;100.00;102614.78;10378242;28;20044;-69
2023/04/04 22:19:16;;;;;;;7.03;3.92;;;;;;;0.56;100.00;102591.72;10393932;28;20037;-69
2023/04/04 22:24:17;;;;;;;7.00;3.60;;;;;;;0.53;100.00;102602.84;10394341;28;20040;-69
2023/04/04 22:29:17;;;;;;;7.32;4.45;;;;;;;0.48;100.00;102608.72;10370040;28;20481;-69
2023/04/04 22:34:18;;;;;;;7.68;4.10;;;;;;;0.37;100.00;102592.59;10353290;28;20034;-66
2023/04/04 22:39:19;;;;;;;8.95;4.40;;;;;;;0.30;100.00;102591.47;10410345;28;20671;-70
2023/04/04 22:44:20;;;;;;;10.35;4.18;;;;;;;0.22;100.00;102596.75;10411224;28;20057;-69
2023/04/04 22:49:21;;;;;;;10.88;5.18;;;;;;;0.11;100.00;102586.94;10356697;28;20041;-72
2023/04/04 22:54:21;;;;;;;10.93;5.20;;;;;;;-0.01;100.00;102583.50;10373757;28;20033;-71
2023/04/04 22:59:22;;;;;;;8.20;4.28;;;;;;;-0.14;100.00;102593.78;10361252;28;20083;-69
2023/04/04 23:04:22;;;;;;;11.02;4.63;;;;;;;-0.15;100.00;102600.19;10408307;28;20041;-70